sensor_id;sensor_type;location;lat;lon;timestamp;pressure;altitude;pressure_sealevel;temperature;humidity
58771;BME280;44539;42.962;1.596;2023-02-28T07:12:17;97336.50;;;0.50;72.09
58771;BME280;44539;42.962;1.596;2023-02-28T07:14:42;97335.19;;;0.55;73.13
58771;BME280;44539;42.962;1.596;2023-02-28T07:17:08;97331.69;;;0.44;72.08
58771;BME280;44539;42.962;1.596;2023-02-28T07:19:35;97330.44;;;0.49;72.39
58771;BME280;44539;42.962;1.596;2023-02-28T07:22:01;97332.59;;;0.55;72.60
58771;BME280;44539;42.962;1.596;2023-02-28T07:24:28;97341.38;;;0.54;72.16
58771;BME280;44539;42.962;1.596;2023-02-28T07:26:54;97343.28;;;0.52;71.77
58771;BME280;44539;42.962;1.596;2023-02-28T07:29:20;97347.25;;;0.58;71.98
58771;BME280;44539;42.962;1.596;2023-02-28T07:31:45;97353.94;;;0.62;72.35
58771;BME280;44539;42.962;1.596;2023-02-28T07:34:12;97346.91;;;0.63;72.25
58771;BME280;44539;42.962;1.596;2023-02-28T07:36:38;97353.94;;;0.62;72.19
58771;BME280;44539;42.962;1.596;2023-02-28T07:39:03;97351.50;;;0.59;71.20
58771;BME280;44539;42.962;1.596;2023-02-28T07:41:30;97354.75;;;0.63;71.72
58771;BME280;44539;42.962;1.596;2023-02-28T07:43:58;97351.31;;;0.62;71.39
58771;BME280;44539;42.962;1.596;2023-02-28T07:46:25;97355.59;;;0.63;70.68
58771;BME280;44539;42.962;1.596;2023-02-28T07:48:51;97351.09;;;0.65;70.43
58771;BME280;44539;42.962;1.596;2023-02-28T07:51:18;97357.28;;;0.64;70.47
58771;BME280;44539;42.962;1.596;2023-02-28T07:53:43;97362.38;;;0.66;70.47
58771;BME280;44539;42.962;1.596;2023-02-28T07:56:09;97370.13;;;0.67;69.54
58771;BME280;44539;42.962;1.596;2023-02-28T07:58:36;97370.22;;;0.66;69.18
58771;BME280;44539;42.962;1.596;2023-02-28T08:01:09;97373.56;;;0.68;69.01
58771;BME280;44539;42.962;1.596;2023-02-28T08:03:35;97364.78;;;0.69;68.52
58771;BME280;44539;42.962;1.596;2023-02-28T08:06:01;97371.25;;;0.76;70.53
58771;BME280;44539;42.962;1.596;2023-02-28T08:08:27;97368.72;;;0.74;69.07
58771;BME280;44539;42.962;1.596;2023-02-28T08:10:59;97372.50;;;0.70;68.19
58771;BME280;44539;42.962;1.596;2023-02-28T08:13:25;97386.69;;;0.79;70.92
58771;BME280;44539;42.962;1.596;2023-02-28T08:15:52;97384.72;;;0.82;69.25
58771;BME280;44539;42.962;1.596;2023-02-28T08:18:17;97378.41;;;0.85;68.54
58771;BME280;44539;42.962;1.596;2023-02-28T08:20:43;97390.22;;;0.91;70.01
58771;BME280;44539;42.962;1.596;2023-02-28T08:23:08;97393.97;;;0.99;70.63
58771;BME280;44539;42.962;1.596;2023-02-28T08:25:33;97387.28;;;0.95;68.67
58771;BME280;44539;42.962;1.596;2023-02-28T08:27:59;97392.91;;;1.02;70.52
58771;BME280;44539;42.962;1.596;2023-02-28T08:30:24;97384.84;;;1.05;69.54
58771;BME280;44539;42.962;1.596;2023-02-28T08:32:49;97384.53;;;1.10;68.15
58771;BME280;44539;42.962;1.596;2023-02-28T08:35:15;97390.47;;;1.12;67.89
58771;BME280;44539;42.962;1.596;2023-02-28T08:37:40;97394.16;;;1.09;67.78
58771;BME280;44539;42.962;1.596;2023-02-28T08:40:07;97393.09;;;1.12;68.18
58771;BME280;44539;42.962;1.596;2023-02-28T08:42:32;97398.38;;;1.23;68.74
58771;BME280;44539;42.962;1.596;2023-02-28T08:44:58;97403.00;;;1.19;67.48
58771;BME280;44539;42.962;1.596;2023-02-28T08:47:23;97404.69;;;1.20;67.20
58771;BME280;44539;42.962;1.596;2023-02-28T08:49:49;97413.03;;;1.26;68.21
58771;BME280;44539;42.962;1.596;2023-02-28T08:52:14;97408.19;;;1.32;68.79
58771;BME280;44539;42.962;1.596;2023-02-28T08:54:39;97408.41;;;1.29;67.01
58771;BME280;44539;42.962;1.596;2023-02-28T08:57:05;97411.75;;;1.31;67.77
58771;BME280;44539;42.962;1.596;2023-02-28T08:59:30;97420.75;;;1.27;66.65
58771;BME280;44539;42.962;1.596;2023-02-28T09:01:56;97428.66;;;1.38;68.38
58771;BME280;44539;42.962;1.596;2023-02-28T09:04:22;97436.41;;;1.40;67.45
58771;BME280;44539;42.962;1.596;2023-02-28T09:06:47;97434.97;;;1.36;65.76
58771;BME280;44539;42.962;1.596;2023-02-28T09:09:14;97429.00;;;1.34;66.15
58771;BME280;44539;42.962;1.596;2023-02-28T09:11:39;97421.69;;;1.39;66.09
58771;BME280;44539;42.962;1.596;2023-02-28T09:14:05;97441.38;;;1.32;65.17
58771;BME280;44539;42.962;1.596;2023-02-28T09:16:34;97433.91;;;1.38;66.50
58771;BME280;44539;42.962;1.596;2023-02-28T09:19:00;97437.25;;;1.40;66.63
58771;BME280;44539;42.962;1.596;2023-02-28T09:21:25;97428.22;;;1.45;67.01
58771;BME280;44539;42.962;1.596;2023-02-28T09:23:51;97429.84;;;1.34;65.29
58771;BME280;44539;42.962;1.596;2023-02-28T09:26:22;97437.38;;;1.39;65.37
58771;BME280;44539;42.962;1.596;2023-02-28T09:28:48;97429.91;;;1.46;66.70
58771;BME280;44539;42.962;1.596;2023-02-28T09:31:23;97432.91;;;1.52;65.69
58771;BME280;44539;42.962;1.596;2023-02-28T09:33:49;97438.97;;;1.53;65.45
58771;BME280;44539;42.962;1.596;2023-02-28T09:36:15;97443.78;;;1.59;66.33
58771;BME280;44539;42.962;1.596;2023-02-28T09:38:41;97445.44;;;1.60;65.50
58771;BME280;44539;42.962;1.596;2023-02-28T09:41:20;97446.44;;;1.46;64.71
58771;BME280;44539;42.962;1.596;2023-02-28T09:44:06;97442.66;;;1.50;65.21
58771;BME280;44539;42.962;1.596;2023-02-28T09:46:39;97451.13;;;1.54;65.61
58771;BME280;44539;42.962;1.596;2023-02-28T09:49:17;97444.69;;;1.58;66.87
58771;BME280;44539;42.962;1.596;2023-02-28T09:52:04;97443.94;;;1.69;66.07
58771;BME280;44539;42.962;1.596;2023-02-28T09:54:34;97437.03;;;1.68;64.66
58771;BME280;44539;42.962;1.596;2023-02-28T09:57:32;97444.97;;;1.66;65.08
58771;BME280;44539;42.962;1.596;2023-02-28T10:00:13;97447.84;;;1.63;64.65
58771;BME280;44539;42.962;1.596;2023-02-28T10:05:29;97445.56;;;1.58;64.09
58771;BME280;44539;42.962;1.596;2023-02-28T10:08:12;97436.66;;;1.61;65.08
58771;BME280;44539;42.962;1.596;2023-02-28T10:10:44;97448.31;;;1.68;65.00
58771;BME280;44539;42.962;1.596;2023-02-28T10:13:32;97444.78;;;1.69;63.87
58771;BME280;44539;42.962;1.596;2023-02-28T10:16:04;97441.53;;;1.66;64.03
58771;BME280;44539;42.962;1.596;2023-02-28T10:18:44;97436.53;;;1.62;63.82
58771;BME280;44539;42.962;1.596;2023-02-28T10:24:03;97445.94;;;1.65;63.91
58771;BME280;44539;42.962;1.596;2023-02-28T10:26:31;97445.72;;;1.68;65.21
58771;BME280;44539;42.962;1.596;2023-02-28T10:28:56;97442.16;;;1.69;64.21
58771;BME280;44539;42.962;1.596;2023-02-28T10:31:22;97442.53;;;1.76;64.73
58771;BME280;44539;42.962;1.596;2023-02-28T10:33:47;97441.00;;;1.73;64.58
58771;BME280;44539;42.962;1.596;2023-02-28T10:36:18;97445.97;;;1.76;64.76
58771;BME280;44539;42.962;1.596;2023-02-28T10:38:46;97446.00;;;1.88;66.14
58771;BME280;44539;42.962;1.596;2023-02-28T10:41:14;97450.69;;;1.95;65.19
58771;BME280;44539;42.962;1.596;2023-02-28T10:43:41;97453.66;;;1.91;65.32
58771;BME280;44539;42.962;1.596;2023-02-28T10:48:37;97444.97;;;1.90;64.29
58771;BME280;44539;42.962;1.596;2023-02-28T10:51:07;97440.47;;;1.92;64.53
58771;BME280;44539;42.962;1.596;2023-02-28T10:58:57;97433.38;;;2.17;63.46
58771;BME280;44539;42.962;1.596;2023-02-28T11:01:44;97433.06;;;2.33;64.74
58771;BME280;44539;42.962;1.596;2023-02-28T11:04:19;97440.50;;;2.15;63.91
58771;BME280;44539;42.962;1.596;2023-02-28T11:06:47;97428.59;;;2.11;64.19
58771;BME280;44539;42.962;1.596;2023-02-28T11:11:50;97423.50;;;2.32;64.43
58771;BME280;44539;42.962;1.596;2023-02-28T11:14:25;97421.59;;;2.22;63.82
58771;BME280;44539;42.962;1.596;2023-02-28T11:16:51;97419.44;;;2.28;64.43
58771;BME280;44539;42.962;1.596;2023-02-28T11:19:25;97422.31;;;2.36;63.98
58771;BME280;44539;42.962;1.596;2023-02-28T11:21:53;97421.97;;;2.40;64.85
58771;BME280;44539;42.962;1.596;2023-02-28T11:26:48;97429.13;;;2.38;64.00
58771;BME280;44539;42.962;1.596;2023-02-28T11:29:22;97420.91;;;2.43;63.91
58771;BME280;44539;42.962;1.596;2023-02-28T11:34:34;97415.78;;;2.53;62.48
58771;BME280;44539;42.962;1.596;2023-02-28T11:37:01;97405.06;;;2.67;63.91
58771;BME280;44539;42.962;1.596;2023-02-28T11:39:31;97413.19;;;2.75;64.08
58771;BME280;44539;42.962;1.596;2023-02-28T11:44:58;97404.59;;;2.73;62.31
58771;BME280;44539;42.962;1.596;2023-02-28T11:47:37;97398.13;;;2.89;62.75
58771;BME280;44539;42.962;1.596;2023-02-28T11:55:35;97399.94;;;2.77;62.41
58771;BME280;44539;42.962;1.596;2023-02-28T12:05:57;97373.91;;;3.08;62.01
58771;BME280;44539;42.962;1.596;2023-02-28T12:22:32;97370.97;;;3.22;59.65
58771;BME280;44539;42.962;1.596;2023-02-28T12:25:23;97373.50;;;3.23;60.17
58771;BME280;44539;42.962;1.596;2023-02-28T12:27:53;97361.19;;;3.24;59.83
58771;BME280;44539;42.962;1.596;2023-02-28T12:30:24;97362.06;;;3.13;59.87
58771;BME280;44539;42.962;1.596;2023-02-28T12:33:06;97371.50;;;3.04;59.81
58771;BME280;44539;42.962;1.596;2023-02-28T12:35:57;97369.00;;;3.03;59.51
58771;BME280;44539;42.962;1.596;2023-02-28T12:38:27;97363.06;;;2.90;59.83
58771;BME280;44539;42.962;1.596;2023-02-28T12:40:58;97361.50;;;2.98;60.61
58771;BME280;44539;42.962;1.596;2023-02-28T12:43:38;97369.97;;;3.02;60.47
58771;BME280;44539;42.962;1.596;2023-02-28T12:46:18;97345.47;;;3.13;61.02
58771;BME280;44539;42.962;1.596;2023-02-28T12:48:53;97348.09;;;3.13;59.62
58771;BME280;44539;42.962;1.596;2023-02-28T12:51:21;97340.06;;;2.93;60.17
58771;BME280;44539;42.962;1.596;2023-02-28T12:56:29;97341.56;;;3.07;60.01
58771;BME280;44539;42.962;1.596;2023-02-28T13:09:40;97349.94;;;3.01;60.92
58771;BME280;44539;42.962;1.596;2023-02-28T13:12:16;97344.09;;;2.97;60.47
58771;BME280;44539;42.962;1.596;2023-02-28T13:14:42;97336.94;;;2.99;61.64
58771;BME280;44539;42.962;1.596;2023-02-28T13:19:40;97350.91;;;2.89;59.99
58771;BME280;44539;42.962;1.596;2023-02-28T13:22:38;97348.28;;;2.77;60.15
58771;BME280;44539;42.962;1.596;2023-02-28T13:27:53;97336.97;;;2.77;61.09
58771;BME280;44539;42.962;1.596;2023-02-28T13:36:06;97318.63;;;2.88;60.23
58771;BME280;44539;42.962;1.596;2023-02-28T13:38:35;97328.16;;;2.78;61.08
58771;BME280;44539;42.962;1.596;2023-02-28T13:41:53;97321.09;;;2.90;60.87
58771;BME280;44539;42.962;1.596;2023-02-28T13:44:21;97316.47;;;2.82;60.92
58771;BME280;44539;42.962;1.596;2023-02-28T13:51:47;97322.81;;;2.68;61.19
58771;BME280;44539;42.962;1.596;2023-02-28T13:54:38;97305.75;;;2.74;61.06
58771;BME280;44539;42.962;1.596;2023-02-28T14:05:38;97313.09;;;2.91;61.98
58771;BME280;44539;42.962;1.596;2023-02-28T14:08:24;97318.94;;;2.95;61.56
58771;BME280;44539;42.962;1.596;2023-02-28T14:11:02;97317.38;;;2.92;61.32
58771;BME280;44539;42.962;1.596;2023-02-28T14:13:41;97326.56;;;2.98;61.87
58771;BME280;44539;42.962;1.596;2023-02-28T14:16:20;97320.91;;;2.70;60.95
58771;BME280;44539;42.962;1.596;2023-02-28T14:18:59;97318.63;;;2.77;61.59
58771;BME280;44539;42.962;1.596;2023-02-28T14:21:32;97317.53;;;2.79;61.97
58771;BME280;44539;42.962;1.596;2023-02-28T14:32:15;97318.28;;;2.70;62.54
58771;BME280;44539;42.962;1.596;2023-02-28T14:34:56;97309.94;;;2.65;61.64
58771;BME280;44539;42.962;1.596;2023-02-28T14:37:36;97304.09;;;2.61;61.83
58771;BME280;44539;42.962;1.596;2023-02-28T14:40:04;97293.59;;;2.73;62.52
58771;BME280;44539;42.962;1.596;2023-02-28T14:42:33;97305.97;;;2.71;61.60
58771;BME280;44539;42.962;1.596;2023-02-28T14:44:59;97295.97;;;2.64;61.48
58771;BME280;44539;42.962;1.596;2023-02-28T14:47:30;97304.81;;;2.63;62.48
58771;BME280;44539;42.962;1.596;2023-02-28T14:49:57;97297.88;;;2.74;62.38
58771;BME280;44539;42.962;1.596;2023-02-28T14:52:26;97303.84;;;2.76;61.01
58771;BME280;44539;42.962;1.596;2023-02-28T14:54:56;97304.44;;;2.68;60.87
58771;BME280;44539;42.962;1.596;2023-02-28T14:57:29;97294.06;;;2.66;60.08
58771;BME280;44539;42.962;1.596;2023-02-28T15:00:20;97293.97;;;2.68;60.86
58771;BME280;44539;42.962;1.596;2023-02-28T15:02:46;97300.88;;;2.58;60.23
58771;BME280;44539;42.962;1.596;2023-02-28T15:07:37;97296.00;;;2.53;60.08
58771;BME280;44539;42.962;1.596;2023-02-28T15:10:25;97303.53;;;2.47;60.00
58771;BME280;44539;42.962;1.596;2023-02-28T15:13:06;97303.16;;;2.51;60.39
58771;BME280;44539;42.962;1.596;2023-02-28T15:18:33;97304.47;;;2.57;60.97
58771;BME280;44539;42.962;1.596;2023-02-28T15:21:09;97300.88;;;2.58;60.40
58771;BME280;44539;42.962;1.596;2023-02-28T15:23:36;97306.28;;;2.56;60.41
58771;BME280;44539;42.962;1.596;2023-02-28T15:26:03;97302.06;;;2.54;60.05
58771;BME280;44539;42.962;1.596;2023-02-28T15:28:29;97304.13;;;2.50;60.21
58771;BME280;44539;42.962;1.596;2023-02-28T15:31:01;97301.38;;;2.52;60.94
58771;BME280;44539;42.962;1.596;2023-02-28T15:33:31;97301.50;;;2.50;60.13
58771;BME280;44539;42.962;1.596;2023-02-28T15:36:14;97300.44;;;2.41;61.00
58771;BME280;44539;42.962;1.596;2023-02-28T15:38:42;97298.41;;;2.45;61.47
